Time;durP1;ratioP1;P1;durP2;ratioP2;P2;SDS_P1;SDS_P2;PMS_P1;PMS_P2;Temp;Humidity;BMP_temperature;BMP_pressure;BME280_temperature;BME280_humidity;BME280_pressure;Samples;Min_cycle;Max_cycle;Signal;HPM_P1;HPM_P2
2022/04/19 00:01:19;;;;;;;12.27;5.53;;;;;;;6.61;54.95;99306.72;5009583;28;20045;-51
2022/04/19 00:04:04;;;;;;;10.10;5.20;;;;;;;6.64;55.08;99305.81;5010097;28;20614;-51
2022/04/19 00:06:49;;;;;;;14.55;6.47;;;;;;;6.66;55.07;99304.91;5014522;28;20054;-51
2022/04/19 00:09:34;;;;;;;11.20;5.15;;;;;;;6.53;55.09;99292.94;5010166;28;20046;-51
2022/04/19 00:12:19;;;;;;;10.43;5.03;;;;;;;6.65;55.43;99297.94;5010749;28;20474;-52
2022/04/19 00:15:05;;;;;;;9.45;5.70;;;;;;;6.55;55.62;99296.41;5013086;28;20097;-51
2022/04/19 00:17:50;;;;;;;12.20;6.05;;;;;;;6.48;56.09;99303.44;5010181;28;20484;-52
2022/04/19 00:20:39;;;;;;;11.77;6.03;;;;;;;6.46;56.00;99297.41;5010156;28;20623;-51
2022/04/19 00:23:23;;;;;;;12.00;6.47;;;;;;;6.35;56.44;99304.53;5014467;28;20423;-51
2022/04/19 00:26:08;;;;;;;13.93;5.60;;;;;;;6.39;56.24;99302.75;5012671;28;20049;-50
2022/04/19 00:28:52;;;;;;;13.27;5.82;;;;;;;6.31;56.90;99300.28;5014483;28;20053;-50
2022/04/19 00:31:37;;;;;;;10.77;5.22;;;;;;;6.33;56.94;99295.88;5011796;28;128048;-52
2022/04/19 00:34:21;;;;;;;10.48;5.60;;;;;;;6.29;56.57;99299.44;5020859;28;20046;-50
2022/04/19 00:37:06;;;;;;;14.23;6.25;;;;;;;6.21;57.15;99286.56;5017896;28;20049;-51
2022/04/19 00:39:50;;;;;;;11.93;5.55;;;;;;;6.22;57.36;99288.25;5015424;28;20057;-51
2022/04/19 00:42:36;;;;;;;12.82;5.53;;;;;;;5.97;57.97;99279.13;5016976;28;20621;-52
2022/04/19 00:45:22;;;;;;;11.25;5.18;;;;;;;5.99;57.52;99274.75;5014936;28;20053;-51
2022/04/19 00:48:07;;;;;;;11.30;4.80;;;;;;;5.96;57.80;99275.66;5014243;28;20053;-51
2022/04/19 00:50:53;;;;;;;12.20;5.32;;;;;;;5.89;58.21;99270.53;5009075;28;20050;-51
2022/04/19 00:53:38;;;;;;;15.57;6.13;;;;;;;5.90;58.18;99274.84;5011291;28;20053;-50
2022/04/19 00:56:23;;;;;;;11.93;5.35;;;;;;;5.88;58.21;99271.41;5008722;28;20176;-51
2022/04/19 00:59:11;;;;;;;11.27;4.60;;;;;;;5.74;58.09;99269.88;5010033;28;20416;-51
2022/04/19 01:01:56;;;;;;;9.50;4.78;;;;;;;5.78;58.54;99263.75;5016766;28;20055;-51
2022/04/19 01:04:41;;;;;;;9.70;4.13;;;;;;;5.69;58.81;99266.50;5011909;28;20820;-50
2022/04/19 01:07:29;;;;;;;9.10;4.38;;;;;;;5.77;58.53;99264.63;5010040;28;20839;-51
2022/04/19 01:10:16;;;;;;;11.98;4.50;;;;;;;5.60;58.61;99270.06;5010283;28;20643;-52
2022/04/19 01:13:18;;;;;;;9.50;3.97;;;;;;;5.65;58.46;99264.78;5010575;28;20476;-50
2022/04/19 01:16:08;;;;;;;10.85;4.15;;;;;;;5.63;58.44;99270.03;5009127;28;20057;-51
2022/04/19 01:18:53;;;;;;;9.38;4.13;;;;;;;5.49;58.77;99258.09;5016758;28;20060;-51
2022/04/19 01:21:48;;;;;;;8.35;4.18;;;;;;;5.50;58.70;99254.63;5013925;28;20744;-51
2022/04/19 01:24:39;;;;;;;9.20;3.55;;;;;;;5.52;58.86;99250.25;5028490;28;20049;-51
2022/04/19 01:27:25;;;;;;;7.15;3.83;;;;;;;5.42;58.90;99243.47;5012414;28;20701;-50
2022/04/19 01:30:10;;;;;;;11.35;4.47;;;;;;;5.34;59.57;99240.97;5013773;28;20053;-51
2022/04/19 01:32:56;;;;;;;8.05;4.28;;;;;;;5.32;59.99;99248.78;5008636;28;20686;-51
2022/04/19 01:35:41;;;;;;;7.20;4.03;;;;;;;5.34;59.88;99252.22;5008696;28;20112;-50
2022/04/19 01:38:27;;;;;;;9.70;3.90;;;;;;;5.23;60.51;99241.13;5013460;28;20052;-51
2022/04/19 01:41:11;;;;;;;9.63;3.90;;;;;;;5.26;60.43;99237.59;5007526;28;21015;-50
2022/04/19 01:44:06;;;;;;;6.45;3.45;;;;;;;5.21;60.25;99231.63;5008164;28;20057;-50
2022/04/19 01:46:51;;;;;;;7.15;3.50;;;;;;;5.10;60.89;99231.75;5014336;28;20050;-51
2022/04/19 01:49:36;;;;;;;9.20;3.70;;;;;;;5.13;60.87;99223.91;5008455;28;20049;-51
2022/04/19 01:52:21;;;;;;;6.88;3.60;;;;;;;5.09;61.27;99230.03;5009004;28;20061;-50
2022/04/19 01:55:09;;;;;;;13.00;5.97;;;;;;;5.04;61.30;99237.88;5007911;28;20054;-51
2022/04/19 01:57:58;;;;;;;7.88;3.88;;;;;;;5.10;60.79;99224.84;5009301;28;20053;-51
2022/04/19 02:00:48;;;;;;;6.95;3.72;;;;;;;5.13;60.94;99219.59;5009046;28;20049;-50
2022/04/19 02:03:39;;;;;;;6.38;3.13;;;;;;;5.10;61.70;99219.66;5007525;28;20057;-50
2022/04/19 02:06:26;;;;;;;8.40;4.40;;;;;;;4.99;61.60;99223.22;5010743;28;20045;-51
2022/04/19 02:09:11;;;;;;;8.50;4.00;;;;;;;5.04;61.98;99219.72;5010008;28;20053;-50
2022/04/19 02:11:56;;;;;;;5.50;3.38;;;;;;;5.00;62.36;99228.38;5006944;28;20057;-50
2022/04/19 02:15:19;;;;;;;6.70;3.08;;;;;;;4.90;62.73;99206.88;4987887;28;20042;-51
2022/04/19 02:18:12;;;;;;;6.93;4.00;;;;;;;4.95;62.93;99222.41;4979662;28;20054;-51
2022/04/19 02:20:58;;;;;;;7.40;3.63;;;;;;;5.01;62.89;99217.16;5004360;28;20054;-51
2022/04/19 02:23:43;;;;;;;11.77;3.97;;;;;;;4.91;63.41;99225.94;5012582;28;20049;-51
2022/04/19 02:26:28;;;;;;;8.65;3.80;;;;;;;4.85;63.11;99226.00;5006861;28;20058;-51
2022/04/19 02:29:16;;;;;;;8.68;3.92;;;;;;;4.83;63.49;99218.22;5011944;28;20081;-51
2022/04/19 02:32:05;;;;;;;5.95;3.75;;;;;;;4.86;63.54;99231.16;5010853;28;20080;-51
2022/04/19 02:34:51;;;;;;;8.18;3.50;;;;;;;4.79;63.67;99211.34;5008314;28;20527;-51
2022/04/19 02:37:37;;;;;;;6.82;3.67;;;;;;;4.82;63.94;99219.09;5008708;28;20042;-51
2022/04/19 02:40:24;;;;;;;6.88;3.45;;;;;;;4.76;64.42;99203.59;5008905;28;20083;-51
2022/04/19 02:43:11;;;;;;;11.00;3.83;;;;;;;4.70;64.31;99208.84;5010197;28;20061;-51
2022/04/19 02:45:56;;;;;;;11.45;4.15;;;;;;;4.68;64.34;99208.03;5008555;28;20104;-51
2022/04/19 02:48:47;;;;;;;7.63;3.70;;;;;;;4.69;64.64;99202.81;5015827;28;20053;-51
2022/04/19 02:51:32;;;;;;;6.78;3.83;;;;;;;4.60;65.06;99213.28;5009635;28;20053;-50
2022/04/19 02:54:17;;;;;;;6.25;3.30;;;;;;;4.46;66.04;99217.75;5015559;28;20061;-51
2022/04/19 02:57:04;;;;;;;5.97;3.70;;;;;;;4.58;65.69;99206.38;5018790;28;20081;-51
2022/04/19 02:59:50;;;;;;;13.88;3.33;;;;;;;4.51;65.91;99212.50;5014134;28;20053;-52
2022/04/19 03:02:35;;;;;;;7.28;3.47;;;;;;;4.56;66.02;99214.19;5023964;28;20050;-51
2022/04/19 03:05:20;;;;;;;8.15;3.42;;;;;;;4.47;66.17;99198.72;5007397;28;20053;-50
2022/04/19 03:08:05;;;;;;;6.85;3.75;;;;;;;4.52;66.31;99203.84;5013946;28;20046;-51
2022/04/19 03:10:51;;;;;;;6.88;3.38;;;;;;;4.51;66.03;99200.38;5015839;28;20050;-51
2022/04/19 03:13:36;;;;;;;8.80;3.45;;;;;;;4.67;66.28;99207.13;5030789;28;20105;-51
2022/04/19 03:16:21;;;;;;;6.40;2.90;;;;;;;4.70;66.28;99208.84;5008889;28;20073;-51
2022/04/19 03:19:07;;;;;;;7.32;3.30;;;;;;;4.56;66.95;99203.81;5006843;28;20052;-51
2022/04/19 03:21:54;;;;;;;6.47;2.97;;;;;;;4.70;66.56;99203.66;5012096;28;20170;-51
2022/04/19 03:27:41;;;;;;;6.68;3.20;;;;;;;4.66;67.03;99210.63;5012602;28;20175;-51
2022/04/19 03:30:28;;;;;;;7.57;4.05;;;;;;;4.65;67.30;99214.09;5010610;28;20066;-51
2022/04/19 03:33:16;;;;;;;5.57;3.58;;;;;;;4.67;67.18;99216.66;5024928;28;20068;-51
2022/04/19 03:36:00;;;;;;;7.15;3.78;;;;;;;4.53;68.41;99215.94;5022581;28;20060;-51
2022/04/19 03:38:45;;;;;;;7.38;3.58;;;;;;;4.62;68.18;99214.13;5011215;28;20049;-51
2022/04/19 03:41:30;;;;;;;6.75;3.38;;;;;;;4.42;68.97;99222.09;5012546;28;20041;-51
2022/04/19 03:44:14;;;;;;;12.73;3.60;;;;;;;4.68;68.51;99208.88;5010766;28;20046;-51
2022/04/19 03:47:09;;;;;;;9.68;3.97;;;;;;;4.62;69.78;99214.13;5015654;28;20595;-50
2022/04/19 03:49:54;;;;;;;9.85;4.20;;;;;;;4.51;72.82;99212.50;5014301;28;20056;-51
2022/04/19 03:52:38;;;;;;;8.40;4.68;;;;;;;4.52;76.53;99214.22;5009161;28;20086;-51
2022/04/19 03:55:24;;;;;;;9.43;4.35;;;;;;;4.50;80.51;99211.66;5024772;28;20136;-51
2022/04/19 03:58:09;;;;;;;9.90;3.92;;;;;;;4.43;85.78;99210.00;5019012;28;20551;-51
2022/04/19 04:00:54;;;;;;;5.88;3.53;;;;;;;4.49;85.66;99188.34;5018689;28;20057;-52
2022/04/19 04:03:38;;;;;;;11.68;3.80;;;;;;;4.69;84.66;99176.84;5018523;28;20053;-51
2022/04/19 04:06:25;;;;;;;6.35;3.88;;;;;;;4.79;84.60;99166.38;5022817;28;20048;-51
2022/04/19 04:09:10;;;;;;;10.93;4.18;;;;;;;4.89;85.70;99167.97;5018107;28;20050;-50
2022/04/19 04:11:55;;;;;;;6.20;3.15;;;;;;;4.75;88.92;99170.75;5016188;28;20084;-51
2022/04/19 04:14:43;;;;;;;4.18;2.67;;;;;;;4.92;87.15;99166.19;5012739;28;20048;-51
2022/04/19 04:17:28;;;;;;;8.45;3.45;;;;;;;5.06;87.20;99167.75;5012819;28;20054;-50
2022/04/19 04:20:14;;;;;;;7.57;3.45;;;;;;;5.06;88.73;99168.63;5017026;28;20050;-51
2022/04/19 04:22:59;;;;;;;8.15;4.03;;;;;;;5.17;89.20;99184.06;5015347;28;21018;-51
2022/04/19 04:25:43;;;;;;;12.65;6.22;;;;;;;5.13;92.80;99184.97;5017175;28;20984;-51
2022/04/19 04:28:29;;;;;;;9.40;4.97;;;;;;;5.04;93.24;99185.97;5016527;28;20073;-51
2022/04/19 04:31:14;;;;;;;7.30;3.42;;;;;;;5.10;94.75;99183.31;5016249;28;20053;-50
2022/04/19 04:33:59;;;;;;;10.07;4.03;;;;;;;5.30;94.42;99177.84;5012413;28;20957;-51
2022/04/19 04:36:44;;;;;;;8.48;5.22;;;;;;;5.22;93.91;99181.41;5009251;28;20088;-51
2022/04/19 04:39:34;;;;;;;7.28;3.72;;;;;;;5.45;91.25;99181.94;5020187;28;20054;-50
2022/04/19 04:42:54;;;;;;;7.20;3.28;;;;;;;5.30;92.95;99180.44;5026343;28;21172;-51
2022/04/19 04:45:39;;;;;;;6.82;3.63;;;;;;;5.36;92.29;99187.25;5009368;28;20053;-51
2022/04/19 04:51:27;;;;;;;4.20;3.03;;;;;;;5.17;96.31;99181.47;5006187;28;20076;-51
2022/04/19 04:54:12;;;;;;;5.28;3.42;;;;;;;5.03;100.00;99186.81;5004478;28;20069;-50
2022/04/19 04:56:56;;;;;;;5.18;3.60;;;;;;;5.04;100.00;99183.38;5005071;28;20541;-50
2022/04/19 04:59:41;;;;;;;4.60;3.88;;;;;;;5.05;100.00;99184.22;5006359;28;20060;-50
2022/04/19 05:02:26;;;;;;;7.05;3.75;;;;;;;4.99;100.00;99194.69;5003960;28;20041;-51
2022/04/19 05:05:11;;;;;;;6.85;4.70;;;;;;;4.92;100.00;99188.72;5012975;28;20053;-51
2022/04/19 05:07:56;;;;;;;6.95;4.82;;;;;;;4.73;100.00;99187.19;5015220;28;20049;-50
2022/04/19 05:10:41;;;;;;;5.20;4.00;;;;;;;4.86;100.00;99200.00;5016848;28;20053;-50
2022/04/19 05:13:31;;;;;;;6.72;5.00;;;;;;;4.83;100.00;99183.63;5016046;28;20144;-50
2022/04/19 05:16:16;;;;;;;8.43;4.20;;;;;;;4.85;100.00;99192.25;5014617;28;20049;-51
2022/04/19 05:19:00;;;;;;;9.63;7.10;;;;;;;4.22;100.00;99192.88;5011453;28;20054;-50
2022/04/19 05:21:45;;;;;;;11.30;7.05;;;;;;;4.31;100.00;99191.97;5027564;28;20572;-50
2022/04/19 05:24:30;;;;;;;9.00;6.07;;;;;;;4.54;100.00;99195.19;5014467;28;20037;-51
2022/04/19 05:27:16;;;;;;;9.45;6.57;;;;;;;4.53;100.00;99183.09;5017622;28;20049;-50
2022/04/19 05:30:02;;;;;;;8.65;6.15;;;;;;;4.67;100.00;99191.56;5018492;28;20057;-51
2022/04/19 05:32:46;;;;;;;11.57;6.55;;;;;;;4.89;100.00;99192.19;5017746;28;20054;-52
2022/04/19 05:35:32;;;;;;;7.15;5.88;;;;;;;4.94;100.00;99192.16;5026162;28;20144;-51
2022/04/19 05:38:17;;;;;;;10.40;6.43;;;;;;;4.48;100.00;99190.03;5023610;28;20046;-51
2022/04/19 05:41:01;;;;;;;7.45;5.30;;;;;;;4.70;100.00;99195.88;5021832;28;20069;-51
2022/04/19 05:43:48;;;;;;;9.85;5.75;;;;;;;4.73;100.00;99195.84;5023577;28;20451;-51
2022/04/19 05:46:35;;;;;;;12.60;8.45;;;;;;;4.83;100.00;99200.03;5020797;28;20092;-51
2022/04/19 05:49:20;;;;;;;21.80;15.07;;;;;;;4.72;100.00;99195.88;5021638;28;20495;-51
2022/04/19 05:52:08;;;;;;;7.68;5.85;;;;;;;4.64;100.00;99199.38;5011811;28;20412;-51
2022/04/19 05:54:53;;;;;;;9.63;7.05;;;;;;;4.53;100.00;99202.97;5019728;28;20072;-51
2022/04/19 05:57:37;;;;;;;7.50;5.93;;;;;;;4.24;100.00;99200.66;5020586;28;20552;-51
2022/04/19 06:00:21;;;;;;;28.45;15.80;;;;;;;4.34;100.00;99202.31;5023985;28;20049;-50
2022/04/19 06:06:12;;;;;;;11.43;6.68;;;;;;;4.41;100.00;99183.22;5018230;28;20088;-50
2022/04/19 06:08:59;;;;;;;19.38;9.48;;;;;;;4.71;100.00;99212.28;5021322;28;20072;-51
2022/04/19 06:11:44;;;;;;;14.95;7.18;;;;;;;4.65;100.00;99214.09;5019070;28;20063;-51
2022/04/19 06:14:30;;;;;;;21.02;10.85;;;;;;;4.66;100.00;99204.56;5030241;28;20045;-51
2022/04/19 06:17:21;;;;;;;10.63;6.90;;;;;;;4.16;100.00;99214.56;5026544;28;20058;-51
2022/04/19 06:20:06;;;;;;;11.60;8.05;;;;;;;3.86;100.00;99225.16;5024497;28;20125;-51
2022/04/19 06:57:15;;;;;;;12.35;8.38;;;;;;;3.15;100.00;99253.16;5103106;27;20997;-52
2022/04/19 07:00:00;;;;;;;12.88;8.25;;;;;;;3.43;100.00;99251.31;5084554;28;20051;-52
2022/04/19 07:02:45;;;;;;;12.05;8.82;;;;;;;3.10;100.00;99263.53;5090755;28;20051;-51
2022/04/19 07:06:00;;;;;;;12.43;9.18;;;;;;;3.15;100.00;99266.09;5043367;28;20051;-52
2022/04/19 07:08:45;;;;;;;12.27;8.65;;;;;;;3.07;100.00;99252.34;5072062;28;20061;-51
2022/04/19 07:11:30;;;;;;;12.50;7.78;;;;;;;3.23;100.00;99266.94;5079265;28;20047;-51
2022/04/19 07:14:25;;;;;;;12.23;7.45;;;;;;;3.47;100.00;99271.16;5088914;28;20044;-50
2022/04/19 07:17:16;;;;;;;9.25;7.65;;;;;;;3.42;100.00;99276.34;5101604;28;20093;-51
2022/04/19 07:29:19;;;;;;;11.80;8.25;;;;;;;3.04;100.00;99284.25;5079507;28;20092;-51
2022/04/19 07:32:06;;;;;;;10.38;7.70;;;;;;;3.27;100.00;99279.84;5068811;28;20553;-52
2022/04/19 07:35:13;;;;;;;11.85;7.72;;;;;;;3.26;100.00;99267.78;5087278;28;20286;-51
2022/04/19 07:37:57;;;;;;;10.25;8.20;;;;;;;3.47;100.00;99274.59;5094285;28;20134;-52
2022/04/19 07:40:51;;;;;;;12.02;8.68;;;;;;;3.38;100.00;99277.25;5107158;28;21076;-52
2022/04/19 07:43:37;;;;;;;12.50;8.32;;;;;;;3.64;100.00;99291.78;5097840;28;20112;-52
2022/04/19 07:46:22;;;;;;;15.10;8.20;;;;;;;3.46;100.00;99287.56;5088476;28;20952;-51
2022/04/19 07:49:07;;;;;;;11.65;8.77;;;;;;;3.35;100.00;99297.09;5092571;28;20034;-52
2022/04/19 07:51:54;;;;;;;12.65;9.43;;;;;;;3.41;100.00;99297.94;5080920;28;20416;-49
2022/04/19 07:54:39;;;;;;;16.85;10.48;;;;;;;3.36;100.00;99291.91;5108297;27;20927;-50
2022/04/19 07:57:24;;;;;;;14.60;8.18;;;;;;;3.58;100.00;99284.06;5100617;28;20542;-50
2022/04/19 08:00:13;;;;;;;23.40;10.20;;;;;;;3.58;100.00;99297.88;5082026;28;20043;-50
2022/04/19 08:03:01;;;;;;;15.30;9.55;;;;;;;3.65;100.00;99290.94;5093763;28;20055;-49
2022/04/19 08:05:47;;;;;;;26.27;11.55;;;;;;;3.77;100.00;99298.63;5091640;28;20040;-50
2022/04/19 08:08:32;;;;;;;17.00;10.48;;;;;;;3.71;100.00;99299.53;5080144;28;20097;-50
2022/04/19 08:11:16;;;;;;;12.07;8.52;;;;;;;3.96;100.00;99291.59;5092941;28;20047;-50
2022/04/19 08:14:04;;;;;;;10.25;8.32;;;;;;;4.12;100.00;99302.72;5079324;28;20039;-50
2022/04/19 08:16:49;;;;;;;10.27;9.10;;;;;;;3.83;100.00;99300.31;5078015;28;20043;-50
2022/04/19 08:19:34;;;;;;;12.57;10.38;;;;;;;3.39;100.00;99311.75;5077557;28;20052;-50
2022/04/19 08:22:21;;;;;;;12.45;9.90;;;;;;;3.79;100.00;99315.00;5073708;28;20400;-49
2022/04/19 08:25:14;;;;;;;11.63;10.05;;;;;;;4.13;100.00;99307.91;5070816;28;20092;-50
2022/04/19 08:27:59;;;;;;;13.23;9.85;;;;;;;4.44;100.00;99310.25;5079164;28;20237;-50
2022/04/19 08:30:44;;;;;;;9.65;8.65;;;;;;;4.75;100.00;99312.59;5077547;28;20039;-50
2022/04/19 08:33:33;;;;;;;8.60;7.28;;;;;;;5.00;100.00;99306.25;5092709;27;20052;-50
2022/04/19 08:36:19;;;;;;;8.05;7.18;;;;;;;5.16;100.00;99325.13;5078306;28;20043;-50
2022/04/19 08:39:04;;;;;;;6.70;6.00;;;;;;;5.11;100.00;99317.41;5079620;27;20052;-50
2022/04/19 08:41:49;;;;;;;6.22;5.10;;;;;;;5.51;100.00;99324.72;5097233;27;20830;-51
2022/04/19 08:44:35;;;;;;;4.40;4.00;;;;;;;5.57;100.00;99335.06;5077778;27;20571;-50
2022/04/19 08:47:22;;;;;;;4.30;3.90;;;;;;;5.63;100.00;99332.38;5091901;27;20572;-51
2022/04/19 08:50:12;;;;;;;4.75;3.65;;;;;;;5.93;100.00;99332.03;5098537;27;20043;-50
2022/04/19 08:59:06;;;;;;;;;;;;;;;5.47;100.00;99338.66;5097647;27;20148;-50
2022/04/19 09:01:51;;;;;;;3.92;3.10;;;;;;;5.71;100.00;99342.66;5098325;27;19924;-50
2022/04/19 09:04:35;;;;;;;3.70;3.30;;;;;;;6.05;100.00;99344.88;5097702;27;20047;-51
2022/04/19 09:07:34;;;;;;;3.03;2.72;;;;;;;6.04;100.00;99336.19;5096799;27;20451;-50
2022/04/19 09:10:31;;;;;;;3.42;2.40;;;;;;;6.72;100.00;99342.94;5096647;27;20035;-50
2022/04/19 09:13:21;;;;;;;3.50;2.45;;;;;;;7.15;100.00;99350.88;5102820;27;20051;-51
2022/04/19 09:16:08;;;;;;;3.53;2.72;;;;;;;7.41;100.00;99342.59;5101444;27;20051;-51
2022/04/19 09:18:52;;;;;;;3.20;2.90;;;;;;;7.35;100.00;99353.13;5098706;27;20443;-52
2022/04/19 09:21:39;;;;;;;3.58;3.15;;;;;;;7.13;100.00;99351.81;5098030;27;20039;-51
2022/04/19 09:24:25;;;;;;;5.05;2.92;;;;;;;6.97;100.00;99346.84;5096810;27;20114;-50
2022/04/19 09:27:09;;;;;;;3.83;3.08;;;;;;;7.07;100.00;99371.00;5098085;27;20039;-51
2022/04/19 09:29:54;;;;;;;3.28;2.97;;;;;;;6.83;100.00;99363.63;5097807;27;20051;-52
2022/04/19 09:32:41;;;;;;;3.95;3.55;;;;;;;6.96;100.00;99371.19;5099060;27;20340;-50
2022/04/19 09:35:36;;;;;;;5.30;4.32;;;;;;;6.72;100.00;99364.63;5098372;27;20403;-50
2022/04/19 09:38:53;;;;;;;4.93;4.43;;;;;;;7.00;100.00;99367.63;5098525;27;20048;-51
2022/04/19 09:41:38;;;;;;;5.60;4.55;;;;;;;7.53;100.00;99377.09;5059587;27;20051;-50
2022/04/19 09:44:23;;;;;;;4.30;3.67;;;;;;;7.77;100.00;99379.22;5096845;28;20055;-50
2022/04/19 09:47:12;;;;;;;5.15;4.50;;;;;;;7.60;100.00;99374.31;5095198;28;20477;-50
2022/04/19 09:49:58;;;;;;;6.47;5.57;;;;;;;7.86;100.00;99372.94;5092560;28;20047;-51
2022/04/19 09:52:50;;;;;;;7.30;6.18;;;;;;;8.33;100.00;99371.91;5097629;27;20047;-51
2022/04/19 09:55:35;;;;;;;6.38;5.35;;;;;;;8.51;100.00;99362.81;5094715;27;20101;-51
2022/04/19 09:58:20;;;;;;;11.38;7.80;;;;;;;8.42;100.00;99365.66;5077849;28;20584;-51
2022/04/19 10:01:05;;;;;;;6.70;5.93;;;;;;;8.24;100.00;99373.88;5094431;28;20139;-51
2022/04/19 10:09:44;;;;;;;8.07;5.45;;;;;;;7.82;100.00;99384.34;5095364;28;20043;-52
2022/04/19 10:12:31;;;;;;;6.25;5.63;;;;;;;8.01;100.00;99383.06;5092620;28;20063;-51
2022/04/19 10:15:15;;;;;;;6.80;5.25;;;;;;;7.73;100.00;99388.84;5089945;28;20562;-51
2022/04/19 10:18:02;;;;;;;8.25;5.25;;;;;;;8.05;100.00;99399.50;5094223;27;20496;-51
2022/04/19 10:20:50;;;;;;;7.90;5.70;;;;;;;7.78;100.00;99393.97;5092939;27;20417;-51
2022/04/19 10:23:35;;;;;;;7.97;5.43;;;;;;;8.02;100.00;99399.56;5094246;27;20050;-51
2022/04/19 10:26:24;;;;;;;7.70;6.85;;;;;;;7.99;100.00;99405.69;5095725;27;20044;-52
2022/04/19 10:29:19;;;;;;;10.70;6.53;;;;;;;7.89;100.00;99401.56;5094960;27;20430;-51
2022/04/19 10:32:07;;;;;;;7.85;6.85;;;;;;;7.36;100.00;99399.13;5095358;27;20047;-51
2022/04/19 10:35:00;;;;;;;8.90;7.13;;;;;;;7.44;100.00;99425.03;5095979;27;20055;-51
2022/04/19 10:37:46;;;;;;;8.48;6.80;;;;;;;7.24;100.00;99412.34;5069350;28;20105;-52
2022/04/19 10:40:50;;;;;;;11.00;6.53;;;;;;;7.26;100.00;99427.09;5096014;27;20043;-51
2022/04/19 10:43:35;;;;;;;7.18;6.15;;;;;;;7.59;100.00;99429.09;5096478;28;20044;-52
2022/04/19 10:46:21;;;;;;;9.25;7.03;;;;;;;7.58;100.00;99420.44;5096321;28;20477;-52
2022/04/19 10:49:22;;;;;;;7.95;6.38;;;;;;;7.44;100.00;99419.81;5097027;28;21927;-50
2022/04/19 10:52:35;;;;;;;8.30;7.30;;;;;;;7.65;100.00;99429.00;5096961;28;20047;-51
2022/04/19 10:55:24;;;;;;;7.43;6.55;;;;;;;7.32;100.00;99426.13;5097095;28;20056;-50
2022/04/19 11:01:05;;;;;;;11.15;7.40;;;;;;;7.62;100.00;99416.88;5098346;28;20044;-53
2022/04/19 11:03:50;;;;;;;8.60;6.97;;;;;;;7.72;100.00;99428.84;5098585;28;20591;-53
2022/04/19 11:06:38;;;;;;;9.18;6.78;;;;;;;7.47;100.00;99420.63;5098476;28;20051;-51
2022/04/19 11:09:26;;;;;;;8.35;7.10;;;;;;;8.14;100.00;99420.19;5079509;28;20043;-52
2022/04/19 11:12:10;;;;;;;9.05;6.68;;;;;;;8.37;100.00;99422.28;5097896;28;20039;-52
2022/04/19 11:15:12;;;;;;;9.50;8.05;;;;;;;8.04;100.00;99431.69;5095087;28;20545;-52
2022/04/19 11:18:22;;;;;;;11.55;8.40;;;;;;;8.28;100.00;99433.78;5095094;28;20513;-53
2022/04/19 11:21:15;;;;;;;8.23;7.25;;;;;;;8.29;100.00;99432.91;5093389;28;20424;-52
2022/04/19 11:23:59;;;;;;;8.65;7.05;;;;;;;8.31;100.00;99438.06;5093455;28;20081;-52
2022/04/19 11:26:44;;;;;;;8.77;6.38;;;;;;;8.50;100.00;99434.19;5094822;28;20382;-52
2022/04/19 11:29:46;;;;;;;9.18;6.80;;;;;;;8.75;100.00;99446.69;5090255;28;20504;-51
2022/04/19 11:32:30;;;;;;;8.30;6.63;;;;;;;9.02;100.00;99451.25;5097184;27;20063;-52
2022/04/19 11:35:16;;;;;;;7.68;6.88;;;;;;;8.79;100.00;99437.91;5097758;27;20051;-53
2022/04/19 11:38:08;;;;;;;8.73;7.13;;;;;;;8.53;100.00;99441.09;5098075;27;20054;-53
2022/04/19 11:47:01;;;;;;;8.10;6.68;;;;;;;9.01;100.00;99448.69;5099241;27;20166;-51
2022/04/19 11:49:46;;;;;;;8.93;6.10;;;;;;;8.78;100.00;99439.66;5098861;27;20055;-52
2022/04/19 11:52:31;;;;;;;7.00;5.63;;;;;;;9.27;100.00;99441.06;5082105;27;20323;-51
2022/04/19 11:55:16;;;;;;;7.50;5.78;;;;;;;9.76;100.00;99442.38;5100551;27;20052;-51
2022/04/19 11:58:07;;;;;;;6.60;4.63;;;;;;;10.12;100.00;99430.91;5085788;27;20046;-52
2022/04/19 12:01:01;;;;;;;4.57;3.90;;;;;;;10.53;100.00;99430.56;5100588;27;21171;-52
2022/04/19 12:03:45;;;;;;;;;;;;;;;11.01;100.00;99431.66;5099513;27;20043;-52
2022/04/19 12:06:30;;;;;;;6.95;4.50;;;;;;;10.50;95.62;99427.19;5101400;27;19924;-52
2022/04/19 12:09:17;;;;;;;6.20;4.15;;;;;;;10.52;95.16;99425.34;5099080;27;20047;-52
2022/04/19 12:12:04;;;;;;;4.88;4.30;;;;;;;11.18;95.31;99424.13;5100125;27;20082;-52
2022/04/19 12:14:52;;;;;;;7.90;5.65;;;;;;;11.31;95.50;99423.69;5098589;27;20047;-53
2022/04/19 12:17:47;;;;;;;5.63;5.10;;;;;;;10.74;89.68;99417.69;5100652;27;20495;-53
2022/04/19 12:20:45;;;;;;;7.00;5.93;;;;;;;11.45;91.18;99424.06;5100103;27;20047;-53
2022/04/19 12:23:30;;;;;;;8.00;6.80;;;;;;;11.23;83.24;99430.03;5100374;27;20046;-54
2022/04/19 12:26:15;;;;;;;9.30;6.55;;;;;;;11.47;80.35;99419.63;5095832;27;20195;-53
2022/04/19 12:29:09;;;;;;;7.13;5.65;;;;;;;11.52;75.85;99422.09;5098475;27;20052;-53
2022/04/19 12:31:56;;;;;;;6.40;5.28;;;;;;;11.88;74.92;99414.72;5099233;27;20056;-52
2022/04/19 12:34:41;;;;;;;6.53;5.18;;;;;;;11.75;74.12;99408.16;5092243;27;20048;-52
2022/04/19 12:37:25;;;;;;;5.20;4.60;;;;;;;11.60;74.31;99417.41;5081860;27;20496;-52
2022/04/19 12:40:10;;;;;;;6.07;5.10;;;;;;;11.46;74.17;99421.38;5097726;27;20534;-52
2022/04/19 12:42:55;;;;;;;6.80;4.13;;;;;;;11.47;71.13;99427.47;5097933;27;20759;-52
2022/04/19 12:45:41;;;;;;;3.80;3.35;;;;;;;11.49;73.25;99419.56;5097009;27;20409;-52
2022/04/19 12:48:25;;;;;;;3.58;3.22;;;;;;;11.17;70.80;99424.16;5098534;27;20126;-52
2022/04/19 12:51:10;;;;;;;4.72;3.70;;;;;;;11.46;71.46;99428.41;5099232;27;20052;-53
2022/04/19 12:54:24;;;;;;;3.92;2.58;;;;;;;12.20;72.94;99416.13;5099707;27;20488;-53
2022/04/19 12:57:17;;;;;;;3.60;3.30;;;;;;;11.72;68.42;99427.47;5083607;28;20056;-52
2022/04/19 13:00:02;;;;;;;4.63;3.10;;;;;;;12.12;70.15;99412.94;5097847;27;21113;-52
2022/04/19 13:02:47;;;;;;;3.50;3.20;;;;;;;12.62;73.90;99407.50;5100648;27;20044;-52
2022/04/19 13:14:41;;;;;;;5.60;4.28;;;;;;;11.83;74.95;99408.72;5100599;27;20056;-52
2022/04/19 13:17:28;;;;;;;7.68;4.28;;;;;;;11.62;78.01;99408.59;5099750;27;20039;-53
2022/04/19 13:20:12;;;;;;;6.40;4.72;;;;;;;11.09;76.46;99411.31;5083537;27;20939;-53
2022/04/19 13:22:56;;;;;;;6.65;4.28;;;;;;;11.32;78.61;99412.31;5093185;27;20137;-53
2022/04/19 13:25:43;;;;;;;5.38;3.92;;;;;;;10.84;82.00;99413.88;5079357;27;20039;-53
2022/04/19 13:28:27;;;;;;;3.70;3.40;;;;;;;11.34;79.44;99421.84;5098766;27;20039;-52
2022/04/19 13:31:12;;;;;;;7.72;4.20;;;;;;;11.62;76.15;99416.47;5088678;27;20062;-52
2022/04/19 13:33:56;;;;;;;3.78;3.40;;;;;;;11.47;75.67;99430.09;5099621;27;20047;-52
2022/04/19 13:36:42;;;;;;;4.65;4.18;;;;;;;11.19;74.90;99427.59;5096942;27;20052;-52
2022/04/19 13:39:27;;;;;;;3.97;3.42;;;;;;;11.14;76.69;99424.25;5094342;28;20044;-53
2022/04/19 13:42:12;;;;;;;5.05;3.97;;;;;;;11.18;77.06;99415.41;5088854;28;20043;-54
2022/04/19 13:44:56;;;;;;;9.25;8.35;;;;;;;11.18;78.13;99425.88;5093201;28;20055;-53
2022/04/19 13:47:40;;;;;;;14.43;13.07;;;;;;;11.17;78.13;99430.25;5096453;28;20044;-52
2022/04/19 13:50:25;;;;;;;9.23;7.00;;;;;;;11.04;78.74;99420.22;5094787;28;20561;-53
2022/04/19 13:53:09;;;;;;;97.45;44.95;;;;;;;10.89;79.48;99432.09;5073957;28;20047;-52
2022/04/19 13:55:54;;;;;;;10.20;7.30;;;;;;;10.90;78.58;99434.63;5094601;28;20043;-53
2022/04/19 13:58:38;;;;;;;6.72;4.07;;;;;;;10.67;75.67;99418.81;5096394;28;20074;-52
2022/04/19 14:01:25;;;;;;;8.13;4.68;;;;;;;10.62;75.81;99428.56;5090659;28;20363;-53
2022/04/19 14:04:09;;;;;;;5.35;4.72;;;;;;;10.52;75.50;99435.84;5080011;28;20052;-52
2022/04/19 14:06:55;;;;;;;5.63;4.75;;;;;;;10.35;76.20;99428.50;5093933;28;20047;-52
2022/04/19 14:09:39;;;;;;;5.07;3.70;;;;;;;10.61;75.61;99430.31;5095806;28;20043;-53
2022/04/19 14:12:24;;;;;;;6.82;5.25;;;;;;;10.56;77.46;99440.06;5094187;28;20052;-52
2022/04/19 14:15:10;;;;;;;11.45;5.60;;;;;;;10.83;76.36;99430.50;5093664;28;20666;-52
2022/04/19 14:17:55;;;;;;;6.50;4.85;;;;;;;11.11;76.19;99433.06;5075694;28;20344;-52
2022/04/19 14:20:40;;;;;;;6.97;4.22;;;;;;;11.16;77.37;99436.41;5094421;28;20389;-52
2022/04/19 14:23:24;;;;;;;6.32;5.05;;;;;;;10.77;75.96;99433.31;5089056;28;20039;-52
2022/04/19 14:26:09;;;;;;;7.60;5.10;;;;;;;11.43;76.24;99434.59;5095251;27;20536;-54
2022/04/19 14:35:00;;;;;;;12.75;7.70;;;;;;;11.64;73.93;99438.25;5090174;27;20549;-52
2022/04/19 14:37:46;;;;;;;70.38;27.85;;;;;;;11.29;73.09;99443.88;5096574;28;20039;-53